FALW

Langebaanweg Airport

Langebaanweg, South Africa
METAR FALW 181300Z AUTO 21016KT //// // ////// 20/14 Q1015
Observed Flight Rules
Jan-18 @ 13:00 UTC (48 minutes ago)
Wind
210° at 16 knots
Temperatures Readings
Current 20°C / 68°F
Dewpoint 14°C / 57°F
Humidity 69%
Altimeter 29.97" Hg
Pressure 1014.92 hPa
Elevation 0
METAR FALW 181300Z AUTO 21016KT //// // ////// 20/14 Q1015
Observed Flight Rules
Jan-18 @ 13:00 UTC
(48 minutes ago)
Wind
210° at 16 knots
Temperature Dewpoint
20°C / 68°F 14°C / 57°F
Humidity Altimeter Pressure
69% 29.97" Hg 1014.92 hPa